Time;durP1;ratioP1;P1;durP2;ratioP2;P2;SDS_P1;SDS_P2;PMS_P1;PMS_P2;Temp;Humidity;BMP_temperature;BMP_pressure;BME280_temperature;BME280_humidity;BME280_pressure;Samples;Min_cycle;Max_cycle;Signal;HPM_P1;HPM_P2
2021/10/23 00:00:10;;;;;;;6.03;5.30;;;14.00;99.90;;;;;;5067714;28;20455;-69
2021/10/23 00:02:41;;;;;;;8.57;5.47;;;13.90;99.90;;;;;;5060729;28;20458;-69
2021/10/23 00:05:11;;;;;;;7.40;6.10;;;13.80;99.90;;;;;;5064757;28;20901;-70
2021/10/23 00:07:42;;;;;;;6.00;5.20;;;13.80;99.90;;;;;;5067731;28;20550;-69
2021/10/23 00:10:15;;;;;;;5.17;4.70;;;13.70;99.90;;;;;;5069560;28;20514;-69
2021/10/23 00:12:46;;;;;;;5.37;4.87;;;13.60;99.90;;;;;;5060655;28;20601;-70
2021/10/23 00:15:17;;;;;;;7.60;6.00;;;13.50;99.90;;;;;;5069513;28;20460;-69
2021/10/23 00:17:47;;;;;;;7.10;4.97;;;13.40;99.90;;;;;;5064878;28;20823;-70
2021/10/23 00:20:18;;;;;;;6.10;5.10;;;13.30;99.90;;;;;;5069648;28;20458;-70
2021/10/23 00:22:49;;;;;;;8.10;5.60;;;13.30;99.90;;;;;;5066390;28;20462;-70
2021/10/23 00:25:21;;;;;;;7.20;6.00;;;13.20;99.90;;;;;;5069216;28;20800;-70
2021/10/23 00:27:54;;;;;;;7.43;5.43;;;13.20;99.90;;;;;;5067187;28;20834;-70
2021/10/23 00:30:26;;;;;;;8.73;5.33;;;13.20;99.90;;;;;;5067864;28;20539;-70
2021/10/23 00:33:01;;;;;;;10.23;6.83;;;13.10;99.90;;;;;;5068347;28;20549;-71
2021/10/23 00:35:32;;;;;;;6.40;5.80;;;13.10;99.90;;;;;;5066262;28;20477;-70
2021/10/23 00:38:02;;;;;;;8.27;6.33;;;13.10;99.90;;;;;;5068910;28;20759;-70
2021/10/23 00:40:35;;;;;;;7.83;5.83;;;13.10;99.90;;;;;;5065766;28;20464;-70
2021/10/23 00:43:06;;;;;;;7.23;5.93;;;13.10;99.90;;;;;;5069204;28;20458;-70
2021/10/23 00:45:37;;;;;;;11.17;6.13;;;13.10;99.90;;;;;;5066069;28;20471;-71
2021/10/23 00:48:08;;;;;;;10.70;5.63;;;13.20;99.90;;;;;;5065940;28;20459;-70
2021/10/23 00:50:39;;;;;;;7.93;6.57;;;13.20;99.90;;;;;;5068767;28;20456;-70
2021/10/23 00:53:10;;;;;;;6.17;5.57;;;13.10;99.90;;;;;;5066739;28;20487;-70
2021/10/23 00:55:45;;;;;;;8.10;5.70;;;13.10;99.90;;;;;;5061281;28;20448;-70
2021/10/23 00:58:16;;;;;;;11.70;5.87;;;13.10;99.90;;;;;;5063774;28;20455;-70
2021/10/23 01:00:47;;;;;;;7.97;5.87;;;13.00;99.90;;;;;;5065345;28;20952;-70
2021/10/23 01:03:18;;;;;;;8.50;5.53;;;12.90;99.90;;;;;;5067615;28;20792;-70
2021/10/23 01:05:49;;;;;;;6.23;5.50;;;12.90;99.90;;;;;;5066886;28;20477;-70
2021/10/23 01:08:20;;;;;;;7.77;5.33;;;12.80;99.90;;;;;;5068365;28;20518;-70
2021/10/23 01:10:53;;;;;;;8.03;5.10;;;12.70;99.90;;;;;;5066496;28;20474;-70
2021/10/23 01:13:24;;;;;;;7.73;6.00;;;12.70;99.90;;;;;;5068339;28;20590;-70
2021/10/23 01:15:55;;;;;;;8.43;6.27;;;12.70;99.90;;;;;;5066669;28;20477;-70
2021/10/23 01:18:26;;;;;;;9.03;7.60;;;12.70;99.90;;;;;;5065788;28;20459;-70
2021/10/23 01:20:58;;;;;;;9.53;6.73;;;12.70;99.90;;;;;;5068686;28;20814;-70
2021/10/23 01:23:29;;;;;;;9.93;6.20;;;12.60;99.90;;;;;;5065771;28;20952;-70
2021/10/23 01:26:02;;;;;;;8.20;5.70;;;12.70;99.90;;;;;;5068760;28;20561;-70
2021/10/23 01:28:33;;;;;;;8.30;5.93;;;12.60;99.90;;;;;;5063579;28;20471;-70
2021/10/23 01:31:04;;;;;;;7.73;5.23;;;12.60;99.90;;;;;;5067967;28;20459;-70
2021/10/23 01:33:35;;;;;;;8.93;6.10;;;12.60;99.90;;;;;;5065453;28;20590;-70
2021/10/23 01:36:16;;;;;;;11.03;6.90;;;12.50;99.90;;;;;;5068569;28;20473;-70
2021/10/23 01:38:47;;;;;;;6.97;5.67;;;12.50;99.90;;;;;;5068788;28;20573;-70
2021/10/23 01:41:19;;;;;;;9.23;6.10;;;12.40;99.90;;;;;;5071969;28;20455;-70
2021/10/23 01:43:49;;;;;;;9.10;6.80;;;12.50;99.90;;;;;;5070226;28;20481;-70
2021/10/23 01:46:20;;;;;;;7.70;6.63;;;12.50;99.90;;;;;;5072092;28;20829;-70
2021/10/23 01:48:51;;;;;;;13.30;6.47;;;12.40;99.90;;;;;;5069065;28;20463;-70
2021/10/23 01:51:23;;;;;;;9.77;7.40;;;12.30;99.90;;;;;;5071632;28;20467;-70
2021/10/23 01:53:54;;;;;;;11.50;7.10;;;12.30;99.90;;;;;;5070000;28;20494;-70
2021/10/23 01:56:25;;;;;;;13.97;7.40;;;12.30;99.90;;;;;;5068535;28;20832;-71
2021/10/23 01:58:56;;;;;;;10.00;6.30;;;12.40;99.90;;;;;;5068083;28;20458;-70
2021/10/23 02:01:26;;;;;;;10.37;6.67;;;12.30;99.90;;;;;;5071494;28;20470;-70
2021/10/23 02:03:57;;;;;;;11.13;7.37;;;12.30;99.90;;;;;;5068882;28;20459;-70
2021/10/23 02:06:30;;;;;;;12.37;10.30;;;12.30;99.90;;;;;;5071811;28;20451;-70
2021/10/23 02:09:02;;;;;;;9.07;6.60;;;12.30;99.90;;;;;;5069639;28;20886;-70
2021/10/23 02:11:33;;;;;;;10.60;6.30;;;12.30;99.90;;;;;;5071637;28;20860;-70
2021/10/23 02:14:03;;;;;;;7.33;6.63;;;12.20;99.90;;;;;;5069644;28;20479;-70
2021/10/23 02:16:34;;;;;;;8.60;6.57;;;12.20;99.90;;;;;;5071596;28;20451;-70
2021/10/23 02:19:06;;;;;;;9.47;6.20;;;12.20;99.90;;;;;;5068886;28;20520;-70
2021/10/23 02:21:38;;;;;;;10.60;7.10;;;12.10;99.90;;;;;;5071072;28;20451;-70
2021/10/23 02:24:09;;;;;;;10.97;7.33;;;12.00;99.90;;;;;;5065066;28;20490;-71
2021/10/23 02:26:40;;;;;;;8.20;7.40;;;11.90;99.90;;;;;;5063204;28;20463;-70
2021/10/23 02:29:11;;;;;;;9.63;7.47;;;11.90;99.90;;;;;;5067453;28;20462;-70
2021/10/23 02:31:42;;;;;;;7.90;6.97;;;12.00;99.90;;;;;;5071754;28;20456;-70
2021/10/23 02:34:13;;;;;;;9.93;7.07;;;11.90;99.90;;;;;;5068720;28;20490;-70
2021/10/23 02:36:47;;;;;;;9.40;7.10;;;11.80;99.90;;;;;;5071255;28;20786;-70
2021/10/23 02:39:18;;;;;;;8.00;7.20;;;11.90;99.90;;;;;;5066314;28;20459;-70
2021/10/23 02:41:49;;;;;;;12.73;7.73;;;11.80;99.90;;;;;;5071092;28;20456;-70
2021/10/23 02:44:20;;;;;;;11.53;7.40;;;11.70;99.90;;;;;;5066385;28;20459;-70
2021/10/23 02:46:51;;;;;;;10.10;6.80;;;11.70;99.90;;;;;;5070998;28;20456;-70
2021/10/23 02:49:22;;;;;;;8.70;7.30;;;11.70;99.90;;;;;;5063765;28;20459;-71
2021/10/23 02:51:55;;;;;;;9.77;7.40;;;11.60;99.90;;;;;;5058571;28;20474;-70
2021/10/23 02:54:26;;;;;;;7.73;6.50;;;11.60;99.90;;;;;;5068607;28;20484;-70
2021/10/23 02:56:57;;;;;;;15.10;7.90;;;11.60;99.90;;;;;;5070823;28;20706;-70
2021/10/23 02:59:28;;;;;;;7.50;6.73;;;11.50;99.90;;;;;;5066625;28;20477;-70
2021/10/23 03:01:59;;;;;;;9.30;7.50;;;11.50;99.90;;;;;;5070792;28;20478;-70
2021/10/23 03:04:30;;;;;;;8.93;7.10;;;11.50;99.90;;;;;;5067902;28;20455;-70
2021/10/23 03:07:03;;;;;;;9.20;6.83;;;11.50;99.90;;;;;;5070671;28;20459;-70
2021/10/23 03:09:34;;;;;;;8.20;7.20;;;11.50;99.90;;;;;;5068106;28;20942;-70
2021/10/23 03:12:06;;;;;;;8.30;6.83;;;11.50;99.90;;;;;;5070425;28;20455;-70
2021/10/23 03:14:36;;;;;;;12.23;7.30;;;11.50;99.90;;;;;;5068141;28;20945;-70
2021/10/23 03:17:07;;;;;;;9.63;7.13;;;11.50;99.90;;;;;;5068810;28;20471;-70
2021/10/23 03:19:38;;;;;;;9.40;7.30;;;11.40;99.90;;;;;;5067652;28;20470;-71
2021/10/23 03:22:10;;;;;;;9.03;7.90;;;11.50;99.90;;;;;;5070098;28;20460;-70
2021/10/23 03:24:41;;;;;;;8.70;7.90;;;11.60;99.90;;;;;;5065839;28;20455;-70
2021/10/23 03:27:12;;;;;;;8.60;7.67;;;11.60;99.90;;;;;;5070718;28;20462;-70
2021/10/23 03:29:44;;;;;;;10.00;8.60;;;11.60;99.90;;;;;;5064818;28;20458;-70
2021/10/23 03:32:18;;;;;;;10.37;8.47;;;11.50;99.90;;;;;;5070168;28;20470;-70
2021/10/23 03:34:49;;;;;;;10.67;9.00;;;11.50;99.90;;;;;;5068278;28;20483;-70
2021/10/23 03:37:21;;;;;;;14.87;9.70;;;11.50;99.90;;;;;;5067043;28;20447;-70
2021/10/23 03:39:52;;;;;;;9.67;8.77;;;11.50;99.90;;;;;;5068324;28;20459;-70
2021/10/23 03:42:25;;;;;;;13.53;9.40;;;11.50;99.90;;;;;;5067922;28;20455;-70
2021/10/23 03:44:56;;;;;;;12.20;8.57;;;11.40;99.90;;;;;;5067004;28;20470;-70
2021/10/23 03:47:27;;;;;;;12.73;9.17;;;11.40;99.90;;;;;;5068793;28;20450;-70
2021/10/23 03:49:58;;;;;;;12.60;9.00;;;11.30;99.90;;;;;;5068103;28;20460;-70
2021/10/23 03:52:30;;;;;;;11.97;9.73;;;11.30;99.90;;;;;;5069523;28;20509;-70
2021/10/23 03:55:01;;;;;;;12.03;10.27;;;11.20;99.90;;;;;;5056313;28;20482;-70
2021/10/23 03:57:32;;;;;;;10.43;9.10;;;11.10;99.90;;;;;;5069436;28;20888;-71
2021/10/23 04:00:04;;;;;;;13.30;10.77;;;11.00;99.90;;;;;;5061044;28;20489;-70
2021/10/23 04:02:35;;;;;;;13.47;10.03;;;11.00;99.90;;;;;;5068471;28;20451;-70
2021/10/23 04:05:06;;;;;;;10.83;9.73;;;10.90;99.90;;;;;;5063344;28;20940;-70
2021/10/23 04:07:39;;;;;;;13.23;10.00;;;10.90;99.90;;;;;;5069149;28;20471;-69
2021/10/23 04:10:10;;;;;;;14.20;10.33;;;10.80;99.90;;;;;;5067920;28;20460;-70
2021/10/23 04:12:41;;;;;;;9.93;9.00;;;10.70;99.90;;;;;;5066739;28;20475;-70
2021/10/23 04:15:12;;;;;;;11.27;10.10;;;10.70;99.90;;;;;;5069561;28;20491;-70
2021/10/23 04:17:42;;;;;;;11.00;9.90;;;10.60;99.90;;;;;;5065001;28;20810;-70
2021/10/23 04:20:14;;;;;;;11.43;9.20;;;10.50;99.90;;;;;;5069652;28;20456;-70
2021/10/23 04:22:46;;;;;;;12.63;10.20;;;10.50;99.90;;;;;;5066841;28;20451;-70
2021/10/23 04:25:17;;;;;;;13.30;10.67;;;10.50;99.90;;;;;;5069236;28;20451;-70
2021/10/23 04:27:48;;;;;;;10.70;9.60;;;10.40;99.90;;;;;;5067107;28;20469;-70
2021/10/23 04:30:19;;;;;;;15.83;10.97;;;10.30;99.90;;;;;;5067058;28;20490;-70
2021/10/23 04:32:50;;;;;;;12.50;10.83;;;10.30;99.90;;;;;;5068131;28;20459;-69
2021/10/23 04:35:21;;;;;;;14.33;12.27;;;10.30;99.90;;;;;;5060580;28;20513;-70
2021/10/23 04:37:53;;;;;;;13.17;11.77;;;10.30;99.90;;;;;;5067333;28;20479;-70
2021/10/23 04:40:26;;;;;;;16.17;12.20;;;10.30;99.90;;;;;;5067948;28;20554;-70
2021/10/23 04:42:57;;;;;;;17.80;11.13;;;10.30;99.90;;;;;;5066891;28;20471;-70
2021/10/23 04:45:28;;;;;;;12.63;9.80;;;10.30;99.90;;;;;;5067390;28;20459;-70
2021/10/23 04:48:00;;;;;;;14.00;10.40;;;10.30;99.90;;;;;;5064158;28;20473;-70
2021/10/23 04:50:30;;;;;;;12.67;9.20;;;10.40;99.90;;;;;;5066206;28;20455;-71
2021/10/23 04:53:03;;;;;;;10.57;9.50;;;10.50;99.90;;;;;;5057849;28;20487;-70
2021/10/23 04:55:34;;;;;;;12.57;9.57;;;10.60;99.90;;;;;;5048688;28;20480;-69
2021/10/23 04:58:04;;;;;;;12.20;9.83;;;10.70;99.90;;;;;;5046684;28;20456;-70
2021/10/23 05:00:35;;;;;;;13.93;9.80;;;10.80;99.90;;;;;;5046889;28;20482;-70
2021/10/23 05:03:06;;;;;;;13.80;9.80;;;10.80;99.90;;;;;;5047682;28;20574;-71
2021/10/23 05:05:37;;;;;;;11.27;8.40;;;10.90;99.90;;;;;;5031636;28;20474;-70
2021/10/23 05:08:10;;;;;;;11.83;8.80;;;10.90;99.90;;;;;;5048423;28;20950;-70
2021/10/23 05:10:41;;;;;;;11.83;8.90;;;10.90;99.90;;;;;;5031222;28;20551;-70
2021/10/23 05:13:13;;;;;;;9.87;8.27;;;10.90;99.90;;;;;;5050031;28;20459;-70
2021/10/23 05:15:44;;;;;;;11.60;8.20;;;11.00;99.90;;;;;;5051078;28;20931;-70
2021/10/23 05:18:14;;;;;;;10.30;8.30;;;11.10;99.90;;;;;;5044450;28;20508;-70
2021/10/23 05:20:45;;;;;;;11.53;7.83;;;11.10;99.90;;;;;;5045701;28;20463;-70
2021/10/23 05:23:21;;;;;;;11.93;7.93;;;11.20;99.90;;;;;;5050081;28;20460;-70
2021/10/23 05:25:52;;;;;;;8.90;8.00;;;11.20;99.90;;;;;;5052970;28;20524;-70
2021/10/23 05:28:23;;;;;;;7.87;7.07;;;11.30;99.90;;;;;;5041612;28;20467;-70
2021/10/23 05:30:54;;;;;;;8.60;7.10;;;11.30;99.90;;;;;;5044705;28;20826;-71
2021/10/23 05:33:25;;;;;;;10.30;7.60;;;11.30;99.90;;;;;;5051298;28;20510;-70
2021/10/23 05:35:55;;;;;;;8.50;7.67;;;11.40;99.90;;;;;;5050614;28;20488;-71
2021/10/23 05:38:28;;;;;;;13.07;7.00;;;11.50;99.90;;;;;;5052193;28;20483;-71
2021/10/23 05:40:59;;;;;;;9.93;6.87;;;11.50;99.90;;;;;;5050454;28;20483;-70
2021/10/23 05:43:30;;;;;;;9.50;6.93;;;11.50;99.90;;;;;;5051849;28;20463;-70
2021/10/23 05:46:01;;;;;;;8.63;6.80;;;11.60;99.90;;;;;;5050369;28;20983;-71
2021/10/23 05:48:32;;;;;;;9.00;6.73;;;11.60;99.90;;;;;;5041867;28;20838;-70
2021/10/23 05:51:04;;;;;;;9.03;6.60;;;11.60;99.90;;;;;;5049332;28;20989;-70
2021/10/23 05:53:36;;;;;;;9.30;7.10;;;11.60;99.90;;;;;;5050200;28;20460;-71
2021/10/23 05:56:07;;;;;;;12.03;6.57;;;11.70;99.90;;;;;;5052060;28;20496;-70
2021/10/23 05:58:38;;;;;;;11.63;7.00;;;11.70;99.90;;;;;;5048449;28;20483;-70
2021/10/23 06:01:08;;;;;;;8.97;6.00;;;11.70;99.90;;;;;;5052226;28;20464;-70
2021/10/23 06:03:39;;;;;;;9.97;6.90;;;11.60;99.90;;;;;;5049140;28;20481;-70
2021/10/23 06:06:11;;;;;;;7.03;6.03;;;11.60;99.90;;;;;;5052137;28;20448;-70
2021/10/23 06:08:43;;;;;;;7.80;6.40;;;11.60;99.90;;;;;;5041825;28;20547;-70
2021/10/23 06:11:15;;;;;;;9.20;6.70;;;11.60;99.90;;;;;;5051948;28;20509;-70
2021/10/23 06:13:45;;;;;;;8.27;6.27;;;11.60;99.90;;;;;;5047293;28;20448;-70
2021/10/23 06:16:16;;;;;;;8.30;6.57;;;11.60;99.90;;;;;;5040801;28;20480;-70
2021/10/23 06:18:47;;;;;;;7.73;6.93;;;11.60;99.90;;;;;;5049039;28;20465;-70
2021/10/23 06:21:18;;;;;;;9.20;6.70;;;11.60;99.90;;;;;;5050427;28;20452;-70
2021/10/23 06:23:51;;;;;;;9.87;6.50;;;11.60;99.90;;;;;;5048855;28;20493;-70
2021/10/23 06:26:21;;;;;;;15.13;6.70;;;11.50;99.90;;;;;;5047258;28;20464;-70
2021/10/23 06:28:52;;;;;;;9.87;7.73;;;11.60;99.90;;;;;;5047663;28;20486;-70
2021/10/23 06:31:23;;;;;;;6.90;6.20;;;11.50;99.90;;;;;;5051653;28;20464;-70
2021/10/23 06:33:54;;;;;;;10.00;6.20;;;11.50;99.90;;;;;;5048575;28;20460;-70
2021/10/23 06:36:25;;;;;;;12.03;7.20;;;11.50;99.90;;;;;;5051052;28;20484;-70
2021/10/23 06:38:57;;;;;;;11.73;6.60;;;11.50;99.90;;;;;;5049009;28;20456;-71
2021/10/23 06:41:29;;;;;;;8.37;6.27;;;11.50;99.90;;;;;;5050969;28;21037;-70
2021/10/23 06:44:00;;;;;;;6.77;6.07;;;11.50;99.90;;;;;;5048851;28;20479;-70
2021/10/23 06:46:31;;;;;;;9.60;6.23;;;11.50;99.90;;;;;;5050909;28;20456;-70
2021/10/23 06:49:02;;;;;;;9.00;6.60;;;11.50;99.90;;;;;;5048035;28;20465;-70
2021/10/23 06:51:33;;;;;;;9.00;6.13;;;11.50;99.90;;;;;;5047973;28;20488;-69
2021/10/23 06:54:06;;;;;;;7.30;6.03;;;11.60;99.90;;;;;;5050661;28;20456;-69
2021/10/23 06:56:37;;;;;;;9.33;6.13;;;11.60;99.90;;;;;;5048733;28;20488;-70
2021/10/23 06:59:08;;;;;;;8.43;6.67;;;11.60;99.90;;;;;;5041963;28;20472;-70
2021/10/23 07:01:39;;;;;;;7.63;6.70;;;11.50;99.90;;;;;;5044832;28;20467;-69
2021/10/23 07:04:10;;;;;;;8.97;5.97;;;11.50;99.90;;;;;;5042153;28;20467;-69
2021/10/23 07:06:41;;;;;;;6.63;5.87;;;11.50;99.90;;;;;;5042786;28;20449;-69
2021/10/23 07:09:16;;;;;;;6.47;5.00;;;11.50;99.90;;;;;;5048591;28;20458;-69
2021/10/23 07:11:47;;;;;;;9.10;5.83;;;11.50;99.90;;;;;;5038897;28;20955;-69
2021/10/23 07:14:17;;;;;;;6.57;5.60;;;11.50;99.90;;;;;;5045487;28;20547;-69
2021/10/23 07:16:48;;;;;;;6.20;5.23;;;11.50;99.90;;;;;;5050272;28;20494;-69
2021/10/23 07:19:19;;;;;;;7.13;5.90;;;11.40;99.90;;;;;;5045894;28;20950;-71
2021/10/23 07:21:50;;;;;;;6.03;5.43;;;11.40;99.90;;;;;;5050493;28;20452;-70
2021/10/23 07:24:22;;;;;;;6.63;5.30;;;11.40;99.90;;;;;;5047951;28;20468;-70
2021/10/23 07:26:53;;;;;;;5.50;4.80;;;11.30;99.90;;;;;;5049941;28;20508;-70
2021/10/23 07:29:24;;;;;;;6.80;4.73;;;11.30;99.90;;;;;;5037950;28;20460;-70
2021/10/23 07:31:55;;;;;;;6.30;4.80;;;11.40;99.90;;;;;;5044338;28;20503;-70
2021/10/23 07:34:26;;;;;;;9.13;5.30;;;11.40;99.90;;;;;;5045493;28;20460;-70
2021/10/23 07:36:57;;;;;;;9.30;4.97;;;11.40;99.90;;;;;;5049013;28;20936;-70
2021/10/23 07:39:29;;;;;;;6.63;5.07;;;11.50;99.90;;;;;;5038532;28;20461;-70
2021/10/23 07:42:00;;;;;;;7.13;5.53;;;11.60;99.90;;;;;;5044858;28;20460;-70
2021/10/23 07:44:31;;;;;;;6.57;4.67;;;11.50;99.90;;;;;;5046403;28;20464;-70
2021/10/23 07:47:02;;;;;;;7.73;5.37;;;11.50;99.90;;;;;;5047646;28;20804;-70
2021/10/23 07:49:32;;;;;;;8.33;5.30;;;11.60;99.90;;;;;;5047140;28;20452;-70
2021/10/23 07:52:03;;;;;;;8.13;4.83;;;11.60;99.90;;;;;;5049509;28;20484;-70
2021/10/23 07:54:36;;;;;;;5.70;4.63;;;11.60;99.90;;;;;;5047510;28;20479;-70
2021/10/23 07:57:07;;;;;;;9.17;5.50;;;11.60;99.90;;;;;;5049335;28;20567;-70
2021/10/23 07:59:38;;;;;;;6.87;5.37;;;11.60;99.90;;;;;;5038141;28;20836;-70
2021/10/23 08:02:09;;;;;;;8.00;5.40;;;11.60;99.90;;;;;;5049227;28;20452;-71
2021/10/23 08:04:40;;;;;;;8.97;4.60;;;11.50;99.90;;;;;;5046822;28;20470;-70
2021/10/23 08:07:11;;;;;;;9.80;5.63;;;11.50;99.90;;;;;;5046021;28;20484;-70
2021/10/23 08:09:43;;;;;;;10.47;5.50;;;11.50;99.90;;;;;;5038142;28;20559;-70
2021/10/23 08:12:14;;;;;;;6.07;5.17;;;11.50;99.90;;;;;;5049015;28;20660;-71
2021/10/23 08:14:48;;;;;;;10.07;5.33;;;11.50;99.90;;;;;;5047919;28;20476;-71
2021/10/23 08:17:18;;;;;;;8.77;5.90;;;11.50;99.90;;;;;;5045983;28;20625;-71
2021/10/23 08:19:50;;;;;;;5.60;5.07;;;11.50;99.90;;;;;;5047316;28;20460;-71
2021/10/23 08:22:21;;;;;;;8.50;4.93;;;11.50;99.90;;;;;;5048681;28;20539;-70
2021/10/23 08:24:54;;;;;;;8.33;5.47;;;11.60;99.90;;;;;;5047205;28;20479;-70
2021/10/23 08:27:25;;;;;;;11.20;5.00;;;11.60;99.90;;;;;;5048921;28;20459;-70
2021/10/23 08:29:56;;;;;;;8.87;5.40;;;11.60;99.90;;;;;;5038947;28;20997;-70
2021/10/23 08:32:26;;;;;;;8.33;6.00;;;11.50;99.90;;;;;;5047915;28;20909;-69
2021/10/23 08:34:57;;;;;;;7.10;5.20;;;11.60;99.90;;;;;;5047364;28;20774;-70
2021/10/23 08:37:28;;;;;;;11.03;5.37;;;11.60;99.90;;;;;;5047633;28;20564;-70
2021/10/23 08:40:01;;;;;;;7.57;4.90;;;11.60;99.90;;;;;;5034739;28;20476;-70
2021/10/23 08:42:32;;;;;;;6.10;5.27;;;11.60;99.90;;;;;;5045781;28;20480;-70
2021/10/23 08:45:05;;;;;;;6.90;4.90;;;11.60;99.90;;;;;;5049080;28;20479;-70
2021/10/23 08:47:38;;;;;;;5.37;4.80;;;11.60;99.90;;;;;;5043238;28;20880;-71
2021/10/23 08:50:12;;;;;;;5.20;4.60;;;11.70;99.90;;;;;;5049099;28;20475;-70
2021/10/23 08:52:45;;;;;;;5.60;5.20;;;11.60;99.90;;;;;;5046908;28;20485;-70
2021/10/23 08:55:18;;;;;;;5.77;4.70;;;11.60;99.90;;;;;;5049133;28;20456;-70
2021/10/23 08:57:49;;;;;;;4.70;4.30;;;11.70;99.90;;;;;;5044636;28;20495;-70
2021/10/23 09:00:20;;;;;;;5.60;5.00;;;11.60;99.90;;;;;;5042328;28;20464;-71
2021/10/23 09:02:51;;;;;;;9.93;5.53;;;11.70;99.90;;;;;;5047973;28;20483;-70
2021/10/23 09:05:23;;;;;;;6.23;4.27;;;11.60;99.90;;;;;;5044823;28;20465;-70
2021/10/23 09:07:55;;;;;;;5.10;4.60;;;11.70;99.90;;;;;;5048583;28;20799;-70
2021/10/23 09:10:29;;;;;;;8.40;6.03;;;11.60;99.90;;;;;;5038608;28;20468;-70
2021/10/23 09:13:06;;;;;;;7.10;5.00;;;11.60;99.90;;;;;;5043438;28;20470;-70
2021/10/23 09:15:39;;;;;;;5.80;4.80;;;11.50;99.90;;;;;;5027774;28;20484;-71
2021/10/23 09:18:11;;;;;;;6.80;4.60;;;11.60;99.90;;;;;;5042225;28;20484;-70
2021/10/23 09:20:44;;;;;;;5.97;5.30;;;11.50;99.90;;;;;;5048888;28;20523;-71
2021/10/23 09:23:19;;;;;;;5.60;4.93;;;11.60;99.90;;;;;;5046653;28;20482;-70
2021/10/23 09:25:52;;;;;;;7.20;5.90;;;11.60;99.90;;;;;;5049122;28;20460;-71
2021/10/23 09:28:30;;;;;;;5.60;5.10;;;11.60;99.90;;;;;;5046626;28;20578;-71
2021/10/23 09:31:01;;;;;;;6.50;5.87;;;11.50;99.90;;;;;;5043728;28;20448;-71
2021/10/23 09:33:32;;;;;;;5.93;5.33;;;11.60;99.90;;;;;;5045291;28;20999;-71
2021/10/23 09:36:04;;;;;;;9.03;5.00;;;11.50;99.90;;;;;;5044049;28;20463;-71
2021/10/23 09:38:35;;;;;;;6.00;4.77;;;11.50;99.90;;;;;;5045586;28;20496;-70
2021/10/23 09:41:16;;;;;;;6.37;5.60;;;11.40;99.90;;;;;;5048920;28;20897;-70
2021/10/23 09:43:47;;;;;;;5.80;5.40;;;11.40;99.90;;;;;;5041514;28;20936;-70
2021/10/23 09:46:24;;;;;;;7.90;5.53;;;11.50;99.90;;;;;;5048851;28;20464;-71
2021/10/23 09:48:57;;;;;;;6.60;5.27;;;11.50;99.90;;;;;;5037046;28;20467;-71
2021/10/23 09:51:29;;;;;;;7.40;5.90;;;11.50;99.90;;;;;;5047545;28;20826;-71
2021/10/23 09:54:01;;;;;;;5.23;4.73;;;11.40;99.90;;;;;;5041444;28;20464;-70
2021/10/23 09:56:36;;;;;;;6.50;5.80;;;11.50;99.90;;;;;;5047779;28;20514;-71
2021/10/23 09:59:08;;;;;;;6.10;5.10;;;11.40;99.90;;;;;;5046263;28;20490;-70
2021/10/23 10:01:41;;;;;;;6.93;5.73;;;11.40;99.90;;;;;;5052120;28;20466;-71
2021/10/23 10:04:14;;;;;;;5.67;5.17;;;11.40;99.90;;;;;;5042326;28;20461;-71
2021/10/23 10:06:45;;;;;;;6.70;5.17;;;11.40;99.90;;;;;;5045044;28;20464;-70
2021/10/23 10:09:18;;;;;;;6.50;4.87;;;11.40;99.90;;;;;;5039379;28;20475;-70
2021/10/23 10:11:53;;;;;;;8.80;5.83;;;11.40;99.90;;;;;;5045303;28;20918;-70
2021/10/23 10:14:27;;;;;;;8.27;4.80;;;11.40;99.90;;;;;;5049983;28;20956;-71
2021/10/23 10:17:00;;;;;;;6.17;4.70;;;11.40;99.90;;;;;;5051631;28;20898;-71
2021/10/23 10:19:31;;;;;;;5.93;4.80;;;11.40;99.90;;;;;;5048149;28;20567;-70
2021/10/23 10:22:08;;;;;;;6.03;4.50;;;11.40;99.90;;;;;;5038700;28;20460;-70
2021/10/23 10:24:40;;;;;;;7.03;4.37;;;11.40;99.90;;;;;;5046852;28;20489;-70
2021/10/23 10:27:17;;;;;;;6.00;5.03;;;11.40;99.90;;;;;;5051777;28;20462;-70
2021/10/23 10:29:50;;;;;;;7.33;5.27;;;11.30;99.90;;;;;;5032983;28;20601;-70
2021/10/23 10:32:25;;;;;;;6.87;4.63;;;11.30;99.90;;;;;;5048183;28;20457;-70
2021/10/23 10:35:12;;;;;;;6.90;4.90;;;11.30;99.90;;;;;;5044452;28;20456;-70
2021/10/23 10:38:23;;;;;;;5.83;4.60;;;11.30;99.90;;;;;;5043717;28;20452;-70
2021/10/23 10:44:17;;;;;;;5.23;4.73;;;11.30;99.90;;;;;;5018021;28;20957;-70
2021/10/23 10:47:09;;;;;;;4.60;4.20;;;11.20;99.90;;;;;;5044199;28;20497;-69
2021/10/23 10:49:57;;;;;;;6.23;4.80;;;11.10;99.90;;;;;;5045289;28;20468;-70
2021/10/23 10:52:52;;;;;;;6.10;5.50;;;11.10;99.90;;;;;;5050149;28;20493;-70
2021/10/23 10:55:24;;;;;;;8.10;5.80;;;11.10;99.90;;;;;;5040691;28;20547;-70
2021/10/23 10:58:00;;;;;;;6.67;4.67;;;11.10;99.90;;;;;;5046727;28;20475;-71
2021/10/23 11:01:03;;;;;;;8.93;6.10;;;11.10;99.90;;;;;;5042931;28;20467;-71
2021/10/23 11:03:37;;;;;;;6.57;5.37;;;11.20;99.90;;;;;;5039390;28;20871;-70
2021/10/23 11:06:42;;;;;;;6.20;5.60;;;11.20;99.90;;;;;;5051006;28;20483;-70
2021/10/23 11:09:34;;;;;;;5.67;5.17;;;11.20;99.90;;;;;;5048793;28;20464;-70
2021/10/23 11:12:21;;;;;;;5.33;4.83;;;11.20;99.90;;;;;;5039298;28;20468;-70
2021/10/23 11:14:52;;;;;;;7.97;5.60;;;11.20;99.90;;;;;;5042870;28;20467;-70
2021/10/23 11:17:24;;;;;;;5.83;4.87;;;11.10;99.90;;;;;;5047349;28;20456;-71
2021/10/23 11:20:00;;;;;;;5.67;5.20;;;11.10;99.90;;;;;;5048755;28;20580;-70
2021/10/23 11:22:36;;;;;;;6.37;5.60;;;11.10;99.90;;;;;;5050371;28;20453;-70
2021/10/23 11:25:09;;;;;;;6.93;4.97;;;11.10;99.90;;;;;;5029845;28;20473;-70
2021/10/23 11:27:42;;;;;;;4.27;3.80;;;11.10;99.90;;;;;;5042144;28;20452;-71
2021/10/23 11:30:22;;;;;;;5.67;4.10;;;11.20;99.90;;;;;;5048956;28;20464;-70
2021/10/23 11:32:56;;;;;;;5.20;3.80;;;11.20;99.90;;;;;;5042992;28;20452;-70
2021/10/23 11:35:34;;;;;;;3.97;3.67;;;11.20;99.90;;;;;;5042540;28;20467;-70
2021/10/23 11:38:07;;;;;;;4.33;3.50;;;11.20;99.90;;;;;;5049791;28;20462;-70
2021/10/23 11:40:39;;;;;;;3.83;3.50;;;11.20;99.90;;;;;;5046596;28;20696;-70
2021/10/23 11:43:18;;;;;;;3.40;2.60;;;11.10;99.90;;;;;;5049822;28;20456;-71
2021/10/23 11:45:49;;;;;;;5.70;3.23;;;11.10;99.90;;;;;;5033350;28;20466;-70
2021/10/23 11:48:20;;;;;;;3.93;3.00;;;11.20;99.90;;;;;;5047267;28;20468;-70
2021/10/23 11:50:53;;;;;;;4.87;2.83;;;11.20;99.90;;;;;;5046661;28;20467;-70
2021/10/23 11:53:27;;;;;;;4.43;3.33;;;11.20;99.90;;;;;;5046137;28;20472;-70
2021/10/23 11:56:00;;;;;;;4.47;2.70;;;11.20;99.90;;;;;;5049747;28;20461;-70
2021/10/23 11:58:32;;;;;;;2.87;2.60;;;11.30;99.90;;;;;;5044399;28;20464;-70
2021/10/23 12:01:10;;;;;;;2.67;2.47;;;11.20;99.90;;;;;;5049611;28;20452;-70
2021/10/23 12:03:44;;;;;;;2.50;1.97;;;11.20;99.90;;;;;;5044974;28;20456;-70
2021/10/23 12:06:18;;;;;;;5.43;2.83;;;11.30;99.90;;;;;;5038696;28;20474;-70
2021/10/23 12:08:50;;;;;;;2.60;2.40;;;11.20;99.90;;;;;;5047298;28;21014;-70
2021/10/23 12:11:23;;;;;;;3.30;2.03;;;11.20;99.90;;;;;;5049434;28;20822;-70
2021/10/23 12:14:03;;;;;;;2.13;1.93;;;11.20;99.90;;;;;;5047294;28;20452;-70
2021/10/23 12:16:43;;;;;;;2.40;2.20;;;11.20;99.90;;;;;;5049257;28;20534;-70
2021/10/23 12:19:19;;;;;;;2.37;2.03;;;11.30;99.90;;;;;;5046506;28;20488;-70
2021/10/23 12:21:53;;;;;;;2.27;2.07;;;11.30;99.90;;;;;;5034187;28;20456;-70
2021/10/23 12:24:30;;;;;;;4.67;2.20;;;11.40;99.90;;;;;;5046138;28;20969;-70
2021/10/23 12:27:12;;;;;;;2.63;2.20;;;11.40;99.90;;;;;;5035857;28;20456;-70
2021/10/23 12:29:46;;;;;;;2.20;2.00;;;11.40;99.90;;;;;;5040035;28;20468;-70
2021/10/23 12:32:19;;;;;;;2.17;1.70;;;11.40;99.90;;;;;;5049184;28;20526;-70
2021/10/23 12:35:10;;;;;;;3.70;2.00;;;11.50;99.90;;;;;;5041232;28;20468;-69
2021/10/23 12:37:45;;;;;;;3.03;2.27;;;11.50;99.90;;;;;;5041006;28;20456;-70
2021/10/23 12:40:25;;;;;;;2.77;1.77;;;11.50;99.90;;;;;;5044287;28;20539;-70
2021/10/23 12:43:00;;;;;;;3.90;2.63;;;11.40;99.90;;;;;;5048180;28;20475;-70
2021/10/23 12:45:34;;;;;;;2.40;2.20;;;11.40;99.90;;;;;;5044119;28;20464;-70
2021/10/23 12:48:06;;;;;;;2.80;2.50;;;11.40;99.90;;;;;;5044179;28;20460;-70
2021/10/23 12:50:38;;;;;;;2.17;1.97;;;11.40;99.90;;;;;;5048744;28;20455;-70
2021/10/23 12:53:11;;;;;;;3.13;2.30;;;11.40;99.90;;;;;;5046548;28;20586;-70
2021/10/23 12:55:44;;;;;;;3.50;2.13;;;11.40;99.90;;;;;;5048916;28;20466;-70
2021/10/23 12:58:16;;;;;;;2.87;2.20;;;11.40;99.90;;;;;;5046475;28;20800;-70
2021/10/23 13:00:48;;;;;;;2.97;2.00;;;11.40;99.90;;;;;;5041142;28;20969;-70
2021/10/23 13:03:19;;;;;;;2.23;2.03;;;11.40;99.90;;;;;;5044711;28;20958;-70
2021/10/23 13:05:50;;;;;;;1.97;1.87;;;11.40;99.90;;;;;;5032490;28;20460;-70
2021/10/23 13:08:22;;;;;;;2.60;1.80;;;11.40;99.90;;;;;;5048488;28;20456;-70
2021/10/23 13:10:53;;;;;;;2.27;1.63;;;11.50;99.90;;;;;;5042717;28;20456;-70
2021/10/23 13:13:24;;;;;;;3.27;2.10;;;11.40;99.90;;;;;;5036142;28;20456;-70